KSEG/SEG METAR and TAF weather

Enter ICAO airport designator
Station Type Date Time Source
KSEG METAR 2021/09/25 03:22 UTC NOAA

KSEG 250322Z AUTO 00000KT 4SM BR CLR 10/10 A3009 RMK AO2 T01000100


Station Type Date Time Source
KSEG Decoded METAR 2021/09/25 03:22 UTC NOAA

SELINSGROVE PENN VALLEY AIRPORT , PA, United States (KSEG) 40-49N 076-52W 134M
Sep 24, 2021 - 11:22 PM EDT / 2021.09.25 0322 UTC
Wind: Calm:0
Visibility: 4 mile(s):0
Sky conditions: clear
Weather: mist
Temperature: 50.0 F (10.0 C)
Dew Point: 50.0 F (10.0 C)
Relative Humidity: 100%
Pressure (altimeter): 30.09 in. Hg (1018 hPa)
ob: KSEG 250322Z AUTO 00000KT 4SM BR CLR 10/10 A3009 RMK AO2 T01000100
cycle: 3

Station Type Date Time Source
KSEG TAF UTC NOAA

Error!

Example: see airport list